Terminal Aerodrome Forecast
Issued by NWS Chicago, IL

Home | Current Version | Previous Version | Text Only | Print | Product List | Glossary Off
Versions: 1 2 3 4 5 6 7 8 9 10 11 12 13 14 15 16 17 18 19 20 21 22 23 24 25

000
FTUS43 KLOT 210914 AAA
TAFRFD
TAF AMD
KRFD 210914Z 2109/2206 VRB03KT 6SM BR SCT040 OVC250
     FM211300 19005KT P6SM FEW015 OVC250
     FM211500 20008KT 6SM -SHRA VCTS OVC040CB
     FM211800 21009KT P6SM SCT050 BKN150
     FM220300 19008KT P6SM VCTS BKN050CB=

USA.gov is the U.S. government's official web portal to all federal, state and local government web resources and services.